FIN576 EFKT-EFHK
Flight info
| Callsign | FIN576 |
|---|---|
| Flight time | 1h 9m |
| Altitude | 35000 |
| Route | TUGPU Y86 LUSEP |
| Aircraft | A320/M-SDE3FGHIRWY/LB1 |
Departure
| Time | 2026-04-26 17:50 |
|---|---|
| Airport | Kittilä International Airport (EFKT) |
Arrival
| Time | 2026-04-26 19:00 |
|---|---|
| Airport | Helsinki Vantaa Airport (EFHK) |
| Time | Latitude | Longitude | Altitude | Speed | Heading |
|---|---|---|---|---|---|
| 2026-04-26 17:31 | 67.69544 | 24.85709 | 640 ft | 0 kts | 76° |
| 2026-04-26 17:43 | 67.69542 | 24.85694 | 644 ft | 4 kts | 76° |
| 2026-04-26 17:43 | 67.69536 | 24.85625 | 640 ft | 4 kts | 76° |
| 2026-04-26 17:43 | 67.69529 | 24.85557 | 647 ft | 4 kts | 76° |
| 2026-04-26 17:44 | 67.69524 | 24.85505 | 645 ft | 0 kts | 76° |
| 2026-04-26 17:47 | 67.69524 | 24.85506 | 645 ft | 0 kts | 76° |
| 2026-04-26 17:47 | 67.69522 | 24.85516 | 645 ft | 2 kts | 107° |
| 2026-04-26 17:48 | 67.69528 | 24.85554 | 646 ft | 3 kts | 346° |
| 2026-04-26 17:48 | 67.69533 | 24.85422 | 642 ft | 6 kts | 254° |
| 2026-04-26 17:48 | 67.69531 | 24.85404 | 641 ft | 0 kts | 254° |
| 2026-04-26 17:49 | 67.69529 | 24.85389 | 647 ft | 3 kts | 253° |
| 2026-04-26 17:49 | 67.69515 | 24.85241 | 645 ft | 11 kts | 256° |
| 2026-04-26 17:49 | 67.69512 | 24.85083 | 639 ft | 7 kts | 311° |
| 2026-04-26 17:49 | 67.69540 | 24.85052 | 638 ft | 0 kts | 345° |
| 2026-04-26 17:50 | 67.69578 | 24.85026 | 640 ft | 30 kts | 345° |
| 2026-04-26 17:50 | 67.70033 | 24.84731 | 641 ft | 100 kts | 346° |
| 2026-04-26 17:50 | 67.70875 | 24.84197 | 781 ft | 136 kts | 344° |
| 2026-04-26 17:50 | 67.71776 | 24.83659 | 1475 ft | 134 kts | 345° |
| 2026-04-26 17:51 | 67.72692 | 24.83088 | 2066 ft | 140 kts | 345° |
| 2026-04-26 17:51 | 67.73742 | 24.83050 | 2336 ft | 165 kts | 18° |
| 2026-04-26 17:51 | 67.74612 | 24.85291 | 2590 ft | 200 kts | 64° |
| 2026-04-26 17:51 | 67.74682 | 24.89259 | 2866 ft | 233 kts | 98° |
| 2026-04-26 17:52 | 67.74199 | 24.93514 | 3289 ft | 254 kts | 108° |
| 2026-04-26 17:52 | 67.73523 | 24.97878 | 4122 ft | 260 kts | 110° |
| 2026-04-26 17:52 | 67.72764 | 25.02243 | 5009 ft | 265 kts | 119° |
| 2026-04-26 17:52 | 67.71465 | 25.05755 | 5828 ft | 275 kts | 147° |
| 2026-04-26 17:53 | 67.69650 | 25.07597 | 6477 ft | 285 kts | 168° |
| 2026-04-26 17:53 | 67.67706 | 25.08782 | 7312 ft | 288 kts | 167° |
| 2026-04-26 17:53 | 67.65743 | 25.10008 | 8183 ft | 291 kts | 167° |
| 2026-04-26 17:54 | 67.61770 | 25.12518 | 9882 ft | 297 kts | 167° |
| 2026-04-26 17:54 | 67.59728 | 25.13809 | 10414 ft | 311 kts | 167° |
| 2026-04-26 17:54 | 67.57551 | 25.15179 | 10625 ft | 334 kts | 167° |
| 2026-04-26 17:54 | 67.55242 | 25.16638 | 11061 ft | 347 kts | 167° |
| 2026-04-26 17:55 | 67.52878 | 25.18138 | 11761 ft | 352 kts | 167° |
| 2026-04-26 17:55 | 67.50490 | 25.19671 | 12502 ft | 355 kts | 167° |
| 2026-04-26 17:55 | 67.48082 | 25.21232 | 13267 ft | 358 kts | 167° |
| 2026-04-26 17:55 | 67.45652 | 25.22811 | 13962 ft | 361 kts | 167° |
| 2026-04-26 17:56 | 67.43199 | 25.24399 | 14602 ft | 365 kts | 167° |
| 2026-04-26 17:56 | 67.38217 | 25.27603 | 15830 ft | 373 kts | 167° |
| 2026-04-26 17:57 | 67.33131 | 25.30860 | 17019 ft | 380 kts | 167° |
| 2026-04-26 17:57 | 67.30548 | 25.32500 | 17624 ft | 384 kts | 167° |
| 2026-04-26 17:57 | 67.27906 | 25.33664 | 18205 ft | 387 kts | 176° |
| 2026-04-26 17:57 | 67.25206 | 25.34120 | 18725 ft | 390 kts | 177° |
| 2026-04-26 17:58 | 67.16967 | 25.35502 | 20323 ft | 400 kts | 177° |
| 2026-04-26 17:59 | 67.11366 | 25.36452 | 21354 ft | 407 kts | 176° |
| 2026-04-26 17:59 | 67.08527 | 25.36941 | 21840 ft | 411 kts | 176° |
| 2026-04-26 17:59 | 67.05664 | 25.37427 | 22327 ft | 414 kts | 176° |
| 2026-04-26 17:59 | 67.02775 | 25.37906 | 22799 ft | 418 kts | 176° |
| 2026-04-26 18:00 | 66.99864 | 25.38387 | 23262 ft | 421 kts | 176° |
| 2026-04-26 18:00 | 66.96929 | 25.38870 | 23674 ft | 424 kts | 176° |
| 2026-04-26 18:00 | 66.93972 | 25.39361 | 24030 ft | 427 kts | 176° |
| 2026-04-26 18:00 | 66.90994 | 25.39853 | 24385 ft | 430 kts | 177° |
| 2026-04-26 18:01 | 66.87995 | 25.40348 | 24735 ft | 433 kts | 176° |
| 2026-04-26 18:01 | 66.84979 | 25.40853 | 25080 ft | 436 kts | 176° |
| 2026-04-26 18:01 | 66.81943 | 25.41356 | 25408 ft | 438 kts | 177° |
| 2026-04-26 18:01 | 66.78888 | 25.41857 | 25712 ft | 442 kts | 177° |
| 2026-04-26 18:02 | 66.75817 | 25.42355 | 26032 ft | 444 kts | 177° |
| 2026-04-26 18:02 | 66.73767 | 25.42685 | 26238 ft | 446 kts | 177° |
| 2026-04-26 18:02 | 66.69606 | 25.43360 | 26669 ft | 450 kts | 177° |
| 2026-04-26 18:02 | 66.66473 | 25.43873 | 26979 ft | 452 kts | 177° |
| 2026-04-26 18:03 | 66.63364 | 25.44380 | 27288 ft | 455 kts | 177° |
| 2026-04-26 18:03 | 66.60195 | 25.44890 | 27597 ft | 458 kts | 177° |
| 2026-04-26 18:03 | 66.57007 | 25.45404 | 27890 ft | 460 kts | 177° |
| 2026-04-26 18:03 | 66.53803 | 25.45918 | 28186 ft | 463 kts | 177° |
| 2026-04-26 18:04 | 66.50580 | 25.46428 | 28496 ft | 465 kts | 177° |
| 2026-04-26 18:04 | 66.47342 | 25.46947 | 28764 ft | 467 kts | 177° |
| 2026-04-26 18:04 | 66.44088 | 25.47468 | 29005 ft | 470 kts | 177° |
| 2026-04-26 18:05 | 66.37526 | 25.48518 | 29487 ft | 475 kts | 177° |
| 2026-04-26 18:05 | 66.34220 | 25.49046 | 29740 ft | 477 kts | 177° |
| 2026-04-26 18:05 | 66.30899 | 25.49565 | 29972 ft | 479 kts | 177° |
| 2026-04-26 18:05 | 66.27564 | 25.50082 | 30159 ft | 481 kts | 177° |
| 2026-04-26 18:06 | 66.24219 | 25.50599 | 30380 ft | 482 kts | 177° |
| 2026-04-26 18:06 | 66.20875 | 25.51117 | 30643 ft | 481 kts | 177° |
| 2026-04-26 18:06 | 66.17533 | 25.51638 | 30895 ft | 481 kts | 177° |
| 2026-04-26 18:06 | 66.14192 | 25.52156 | 31155 ft | 481 kts | 177° |
| 2026-04-26 18:07 | 66.10852 | 25.52672 | 31407 ft | 481 kts | 177° |
| 2026-04-26 18:07 | 66.07511 | 25.53168 | 31648 ft | 481 kts | 178° |
| 2026-04-26 18:07 | 66.04165 | 25.53388 | 31878 ft | 481 kts | 181° |
| 2026-04-26 18:07 | 66.01944 | 25.53349 | 32045 ft | 481 kts | 182° |
| 2026-04-26 18:08 | 65.97470 | 25.52962 | 32365 ft | 481 kts | 184° |
| 2026-04-26 18:08 | 65.94126 | 25.52556 | 32618 ft | 481 kts | 184° |
| 2026-04-26 18:08 | 65.90782 | 25.52167 | 32875 ft | 481 kts | 184° |
| 2026-04-26 18:08 | 65.87433 | 25.51849 | 33137 ft | 481 kts | 183° |
| 2026-04-26 18:09 | 65.84089 | 25.51612 | 33379 ft | 481 kts | 182° |
| 2026-04-26 18:09 | 65.80741 | 25.51439 | 33645 ft | 481 kts | 182° |
| 2026-04-26 18:09 | 65.77392 | 25.51292 | 33904 ft | 481 kts | 182° |
| 2026-04-26 18:09 | 65.74045 | 25.51138 | 34117 ft | 481 kts | 182° |
| 2026-04-26 18:10 | 65.70697 | 25.50966 | 34330 ft | 481 kts | 182° |
| 2026-04-26 18:10 | 65.67352 | 25.50773 | 34535 ft | 481 kts | 182° |
| 2026-04-26 18:10 | 65.64006 | 25.50569 | 34741 ft | 481 kts | 182° |
| 2026-04-26 18:10 | 65.60660 | 25.50365 | 34867 ft | 481 kts | 182° |
| 2026-04-26 18:11 | 65.57317 | 25.50160 | 34900 ft | 480 kts | 182° |
| 2026-04-26 18:11 | 65.50640 | 25.49756 | 34902 ft | 480 kts | 182° |
| 2026-04-26 18:12 | 65.43975 | 25.49366 | 34897 ft | 480 kts | 182° |
| 2026-04-26 18:12 | 65.37302 | 25.48996 | 34896 ft | 480 kts | 182° |
| 2026-04-26 18:13 | 65.30615 | 25.48613 | 34903 ft | 481 kts | 182° |
| 2026-04-26 18:13 | 65.23925 | 25.48223 | 34905 ft | 481 kts | 182° |
| 2026-04-26 18:14 | 65.17237 | 25.47829 | 34907 ft | 481 kts | 182° |
| 2026-04-26 18:14 | 65.10550 | 25.47447 | 34910 ft | 480 kts | 182° |
| 2026-04-26 18:15 | 65.03864 | 25.47067 | 34907 ft | 480 kts | 182° |
| 2026-04-26 18:15 | 64.97185 | 25.46692 | 34911 ft | 480 kts | 182° |
| 2026-04-26 18:16 | 64.90548 | 25.46315 | 34906 ft | 480 kts | 182° |
| 2026-04-26 18:16 | 64.80529 | 25.45722 | 34904 ft | 480 kts | 182° |
| 2026-04-26 18:17 | 64.73849 | 25.45350 | 34901 ft | 480 kts | 182° |
| 2026-04-26 18:17 | 64.67178 | 25.44988 | 34877 ft | 480 kts | 182° |
| 2026-04-26 18:18 | 64.60494 | 25.44611 | 34881 ft | 481 kts | 182° |
| 2026-04-26 18:18 | 64.53806 | 25.44237 | 34891 ft | 481 kts | 182° |
| 2026-04-26 18:19 | 64.47114 | 25.43871 | 34891 ft | 481 kts | 182° |
| 2026-04-26 18:19 | 64.40422 | 25.43497 | 34883 ft | 481 kts | 182° |
| 2026-04-26 18:20 | 64.33730 | 25.43137 | 34872 ft | 481 kts | 182° |
| 2026-04-26 18:20 | 64.29244 | 25.42896 | 34899 ft | 482 kts | 182° |
| 2026-04-26 18:21 | 64.20320 | 25.42417 | 34902 ft | 482 kts | 182° |
| 2026-04-26 18:21 | 64.13628 | 25.42041 | 34895 ft | 481 kts | 182° |
| 2026-04-26 18:22 | 64.06926 | 25.41669 | 34895 ft | 481 kts | 182° |
| 2026-04-26 18:22 | 64.00228 | 25.41311 | 34881 ft | 481 kts | 182° |
| 2026-04-26 18:23 | 63.93527 | 25.40969 | 34885 ft | 482 kts | 182° |
| 2026-04-26 18:23 | 63.86828 | 25.40637 | 34893 ft | 482 kts | 182° |
| 2026-04-26 18:24 | 63.80108 | 25.40288 | 34887 ft | 483 kts | 182° |
| 2026-04-26 18:24 | 63.73387 | 25.39943 | 34890 ft | 483 kts | 182° |
| 2026-04-26 18:25 | 63.66670 | 25.39598 | 34876 ft | 483 kts | 182° |
| 2026-04-26 18:25 | 63.59985 | 25.39242 | 34883 ft | 484 kts | 182° |
| 2026-04-26 18:26 | 63.53252 | 25.38876 | 34894 ft | 485 kts | 182° |
| 2026-04-26 18:26 | 63.46513 | 25.38530 | 34900 ft | 484 kts | 182° |
| 2026-04-26 18:27 | 63.39773 | 25.38078 | 34902 ft | 483 kts | 187° |
| 2026-04-26 18:27 | 63.33113 | 25.36293 | 34887 ft | 483 kts | 189° |
| 2026-04-26 18:28 | 63.26454 | 25.34295 | 34888 ft | 483 kts | 189° |
| 2026-04-26 18:28 | 63.19786 | 25.32305 | 34885 ft | 484 kts | 189° |
| 2026-04-26 18:29 | 63.13102 | 25.30373 | 34887 ft | 484 kts | 189° |
| 2026-04-26 18:29 | 63.07546 | 25.28798 | 34890 ft | 484 kts | 189° |
| 2026-04-26 18:30 | 63.00861 | 25.26912 | 34878 ft | 485 kts | 189° |
| 2026-04-26 18:30 | 62.94159 | 25.25009 | 34883 ft | 485 kts | 189° |
| 2026-04-26 18:31 | 62.87455 | 25.23112 | 34882 ft | 486 kts | 189° |
| 2026-04-26 18:31 | 62.80745 | 25.21218 | 34876 ft | 486 kts | 189° |
| 2026-04-26 18:32 | 62.74032 | 25.19334 | 34890 ft | 487 kts | 189° |
| 2026-04-26 18:32 | 62.67317 | 25.17463 | 34874 ft | 487 kts | 189° |
| 2026-04-26 18:33 | 62.60587 | 25.15602 | 34899 ft | 487 kts | 189° |
| 2026-04-26 18:33 | 62.53865 | 25.13759 | 34901 ft | 487 kts | 189° |
| 2026-04-26 18:34 | 62.47139 | 25.11914 | 34905 ft | 487 kts | 189° |
| 2026-04-26 18:34 | 62.40417 | 25.10059 | 34891 ft | 487 kts | 189° |
| 2026-04-26 18:35 | 62.33694 | 25.08224 | 34892 ft | 487 kts | 189° |
| 2026-04-26 18:35 | 62.26971 | 25.06398 | 34894 ft | 487 kts | 189° |
| 2026-04-26 18:36 | 62.20248 | 25.04570 | 34897 ft | 487 kts | 189° |
| 2026-04-26 18:36 | 62.13532 | 25.02774 | 34900 ft | 487 kts | 189° |
| 2026-04-26 18:37 | 62.06806 | 25.00985 | 34867 ft | 487 kts | 189° |
| 2026-04-26 18:37 | 62.00071 | 24.99196 | 34867 ft | 488 kts | 189° |
| 2026-04-26 18:38 | 61.93322 | 24.97406 | 34674 ft | 490 kts | 189° |
| 2026-04-26 18:38 | 61.89940 | 24.96511 | 34447 ft | 490 kts | 189° |
| 2026-04-26 18:38 | 61.86556 | 24.95616 | 34195 ft | 490 kts | 189° |
| 2026-04-26 18:39 | 61.83169 | 24.94725 | 33953 ft | 491 kts | 189° |
| 2026-04-26 18:39 | 61.79765 | 24.93833 | 32848 ft | 497 kts | 189° |
| 2026-04-26 18:39 | 61.76315 | 24.92931 | 31843 ft | 501 kts | 189° |
| 2026-04-26 18:39 | 61.72869 | 24.92036 | 31219 ft | 496 kts | 189° |
| 2026-04-26 18:40 | 61.69455 | 24.91154 | 30538 ft | 493 kts | 189° |
| 2026-04-26 18:40 | 61.66057 | 24.90280 | 29857 ft | 490 kts | 189° |
| 2026-04-26 18:40 | 61.62694 | 24.89409 | 29123 ft | 485 kts | 189° |
| 2026-04-26 18:40 | 61.59368 | 24.88539 | 28483 ft | 478 kts | 189° |
| 2026-04-26 18:41 | 61.56129 | 24.87693 | 27871 ft | 473 kts | 189° |
| 2026-04-26 18:41 | 61.52883 | 24.86855 | 27232 ft | 467 kts | 189° |
| 2026-04-26 18:41 | 61.49674 | 24.86033 | 26614 ft | 462 kts | 188° |
| 2026-04-26 18:41 | 61.46498 | 24.85224 | 25974 ft | 457 kts | 189° |
| 2026-04-26 18:42 | 61.43355 | 24.84423 | 25402 ft | 453 kts | 189° |
| 2026-04-26 18:42 | 61.40243 | 24.83627 | 24821 ft | 448 kts | 189° |
| 2026-04-26 18:42 | 61.37160 | 24.82837 | 24258 ft | 444 kts | 189° |
| 2026-04-26 18:42 | 61.34105 | 24.82060 | 23693 ft | 440 kts | 189° |
| 2026-04-26 18:43 | 61.31080 | 24.81295 | 23104 ft | 436 kts | 189° |
| 2026-04-26 18:43 | 61.28091 | 24.80541 | 22595 ft | 429 kts | 189° |
| 2026-04-26 18:43 | 61.25147 | 24.79796 | 22097 ft | 423 kts | 189° |
| 2026-04-26 18:43 | 61.22238 | 24.79061 | 21599 ft | 419 kts | 188° |
| 2026-04-26 18:44 | 61.19362 | 24.78338 | 21104 ft | 414 kts | 188° |
| 2026-04-26 18:44 | 61.16512 | 24.77620 | 20605 ft | 411 kts | 188° |
| 2026-04-26 18:44 | 61.13684 | 24.76908 | 20098 ft | 408 kts | 189° |
| 2026-04-26 18:44 | 61.10883 | 24.76206 | 19592 ft | 405 kts | 188° |
| 2026-04-26 18:45 | 61.08087 | 24.75507 | 19078 ft | 404 kts | 188° |
| 2026-04-26 18:45 | 61.05304 | 24.74814 | 18558 ft | 402 kts | 188° |
| 2026-04-26 18:45 | 61.02529 | 24.74123 | 18019 ft | 401 kts | 188° |
| 2026-04-26 18:45 | 60.99765 | 24.73434 | 17470 ft | 398 kts | 188° |
| 2026-04-26 18:46 | 60.97024 | 24.72752 | 16945 ft | 395 kts | 188° |
| 2026-04-26 18:46 | 60.94303 | 24.72075 | 16434 ft | 392 kts | 188° |
| 2026-04-26 18:46 | 60.91604 | 24.71404 | 15928 ft | 389 kts | 188° |
| 2026-04-26 18:46 | 60.88923 | 24.70740 | 15425 ft | 387 kts | 188° |
| 2026-04-26 18:47 | 60.86261 | 24.70082 | 14928 ft | 384 kts | 188° |
| 2026-04-26 18:47 | 60.83611 | 24.69428 | 14427 ft | 382 kts | 188° |
| 2026-04-26 18:47 | 60.80980 | 24.68783 | 13955 ft | 380 kts | 188° |
| 2026-04-26 18:47 | 60.78360 | 24.68143 | 13432 ft | 378 kts | 188° |
| 2026-04-26 18:48 | 60.75763 | 24.67506 | 12900 ft | 375 kts | 188° |
| 2026-04-26 18:48 | 60.73187 | 24.66874 | 12410 ft | 371 kts | 188° |
| 2026-04-26 18:48 | 60.70669 | 24.66257 | 12250 ft | 358 kts | 188° |
| 2026-04-26 18:48 | 60.68237 | 24.65670 | 12061 ft | 347 kts | 188° |
| 2026-04-26 18:49 | 60.65881 | 24.65106 | 11918 ft | 335 kts | 188° |
| 2026-04-26 18:49 | 60.63601 | 24.64559 | 11790 ft | 325 kts | 188° |
| 2026-04-26 18:49 | 60.61394 | 24.64020 | 11634 ft | 314 kts | 188° |
| 2026-04-26 18:49 | 60.59266 | 24.63498 | 11305 ft | 303 kts | 188° |
| 2026-04-26 18:50 | 60.57182 | 24.62987 | 10737 ft | 300 kts | 188° |
| 2026-04-26 18:50 | 60.55119 | 24.62481 | 10141 ft | 298 kts | 188° |
| 2026-04-26 18:50 | 60.53062 | 24.61975 | 9493 ft | 297 kts | 188° |
| 2026-04-26 18:50 | 60.51036 | 24.61483 | 9131 ft | 285 kts | 188° |
| 2026-04-26 18:51 | 60.49105 | 24.61021 | 8732 ft | 276 kts | 189° |
| 2026-04-26 18:51 | 60.47212 | 24.60569 | 8201 ft | 273 kts | 189° |
| 2026-04-26 18:51 | 60.45337 | 24.60118 | 7640 ft | 270 kts | 189° |
| 2026-04-26 18:51 | 60.43478 | 24.59669 | 7085 ft | 268 kts | 189° |
| 2026-04-26 18:52 | 60.41633 | 24.59224 | 6542 ft | 266 kts | 190° |
| 2026-04-26 18:52 | 60.40422 | 24.58934 | 6174 ft | 265 kts | 190° |
| 2026-04-26 18:52 | 60.37985 | 24.58352 | 5422 ft | 262 kts | 190° |
| 2026-04-26 18:52 | 60.36185 | 24.57925 | 4867 ft | 259 kts | 190° |
| 2026-04-26 18:53 | 60.34420 | 24.57507 | 4367 ft | 259 kts | 189° |
| 2026-04-26 18:53 | 60.32639 | 24.57084 | 4095 ft | 257 kts | 189° |
| 2026-04-26 18:53 | 60.30863 | 24.56663 | 3824 ft | 256 kts | 189° |
| 2026-04-26 18:53 | 60.29095 | 24.56247 | 3562 ft | 256 kts | 187° |
| 2026-04-26 18:54 | 60.27323 | 24.56470 | 3290 ft | 256 kts | 166° |
| 2026-04-26 18:54 | 60.25693 | 24.57804 | 3024 ft | 251 kts | 145° |
| 2026-04-26 18:54 | 60.24376 | 24.59944 | 2756 ft | 237 kts | 133° |
| 2026-04-26 18:54 | 60.23186 | 24.62143 | 2482 ft | 227 kts | 133° |
| 2026-04-26 18:55 | 60.22117 | 24.64362 | 2310 ft | 213 kts | 115° |
| 2026-04-26 18:55 | 60.21690 | 24.66942 | 2345 ft | 181 kts | 83° |
| 2026-04-26 18:55 | 60.21867 | 24.69295 | 2342 ft | 162 kts | 57° |
| 2026-04-26 18:55 | 60.22457 | 24.71080 | 2314 ft | 149 kts | 38° |
| 2026-04-26 18:56 | 60.23156 | 24.72598 | 2302 ft | 147 kts | 38° |
| 2026-04-26 18:56 | 60.23850 | 24.74107 | 2267 ft | 147 kts | 38° |
| 2026-04-26 18:56 | 60.24541 | 24.75613 | 2138 ft | 146 kts | 38° |
| 2026-04-26 18:56 | 60.25230 | 24.77113 | 1962 ft | 146 kts | 39° |
| 2026-04-26 18:57 | 60.25919 | 24.78618 | 1777 ft | 146 kts | 39° |
| 2026-04-26 18:57 | 60.26375 | 24.79618 | 1658 ft | 138 kts | 39° |
| 2026-04-26 18:57 | 60.27213 | 24.81452 | 1392 ft | 131 kts | 38° |
| 2026-04-26 18:57 | 60.27827 | 24.82793 | 1200 ft | 130 kts | 39° |
| 2026-04-26 18:58 | 60.28445 | 24.84135 | 994 ft | 131 kts | 40° |
| 2026-04-26 18:58 | 60.29068 | 24.85505 | 819 ft | 135 kts | 41° |
| 2026-04-26 18:58 | 60.29702 | 24.86902 | 629 ft | 136 kts | 41° |
| 2026-04-26 18:58 | 60.30347 | 24.88310 | 454 ft | 137 kts | 41° |
| 2026-04-26 18:59 | 60.30992 | 24.89722 | 277 ft | 136 kts | 41° |
| 2026-04-26 18:59 | 60.31624 | 24.91129 | 154 ft | 129 kts | 41° |
| 2026-04-26 18:59 | 60.32142 | 24.92245 | 161 ft | 85 kts | 48° |
| 2026-04-26 18:59 | 60.32447 | 24.92914 | 173 ft | 55 kts | 47° |
| 2026-04-26 19:00 | 60.32678 | 24.93428 | 180 ft | 45 kts | 47° |
| 2026-04-26 19:00 | 60.32876 | 24.93864 | 183 ft | 39 kts | 48° |
| 2026-04-26 19:00 | 60.33009 | 24.94159 | 191 ft | 20 kts | 48° |
| 2026-04-26 19:00 | 60.33048 | 24.94406 | 188 ft | 18 kts | 89° |
| 2026-04-26 19:01 | 60.33041 | 24.94623 | 183 ft | 15 kts | 96° |
| 2026-04-26 19:01 | 60.33055 | 24.94844 | 179 ft | 16 kts | 58° |
| 2026-04-26 19:01 | 60.33107 | 24.95031 | 178 ft | 15 kts | 89° |
| 2026-04-26 19:01 | 60.33129 | 24.95218 | 177 ft | 13 kts | 54° |
| 2026-04-26 19:02 | 60.33186 | 24.95340 | 180 ft | 10 kts | 49° |
| 2026-04-26 19:02 | 60.33209 | 24.95475 | 182 ft | 16 kts | 98° |
| 2026-04-26 19:02 | 60.33119 | 24.95683 | 180 ft | 20 kts | 138° |
| 2026-04-26 19:02 | 60.33058 | 24.95784 | 181 ft | 14 kts | 146° |
| 2026-04-26 19:03 | 60.32941 | 24.95922 | 177 ft | 16 kts | 149° |
| 2026-04-26 19:03 | 60.32844 | 24.96038 | 174 ft | 16 kts | 149° |
| 2026-04-26 19:03 | 60.32745 | 24.96152 | 172 ft | 16 kts | 150° |
| 2026-04-26 19:03 | 60.32651 | 24.96262 | 172 ft | 15 kts | 149° |
| 2026-04-26 19:04 | 60.32570 | 24.96357 | 173 ft | 12 kts | 150° |
| 2026-04-26 19:04 | 60.32503 | 24.96437 | 174 ft | 13 kts | 149° |
| 2026-04-26 19:04 | 60.32401 | 24.96558 | 175 ft | 17 kts | 151° |
| 2026-04-26 19:04 | 60.32295 | 24.96677 | 167 ft | 18 kts | 151° |
| 2026-04-26 19:05 | 60.32119 | 24.96868 | 166 ft | 11 kts | 177° |
| 2026-04-26 19:05 | 60.32065 | 24.96785 | 166 ft | 9 kts | 227° |
| 2026-04-26 19:05 | 60.32060 | 24.96774 | 166 ft | 0 kts | 227° |
| 2026-04-26 19:06 | 60.32054 | 24.96759 | 166 ft | 4 kts | 227° |
| 2026-04-26 19:06 | 60.32030 | 24.96724 | 167 ft | 0 kts | 194° |
| 2026-04-26 19:06 | 60.32007 | 24.96730 | 166 ft | 6 kts | 171° |
| 2026-04-26 19:06 | 60.31970 | 24.96739 | 167 ft | 3 kts | 174° |
| 2026-04-26 19:07 | 60.31966 | 24.96739 | 167 ft | 0 kts | 174° |